Disclaimer

Please do not use the information listed here in-flight or in-navigation, as they are not provided to us by the airports but are provided by volunteers, so they might be outdated.

Search


Regions


Airport information page

Radio informations:
Tower (TWR) - 129.325 MHz
Approach (APP) - 129.325 MHz

Airport informations:
Latitude: 45° 28' 24.07" N
Longitude: 013° 36' 53.92" E
Elevation: 7 feet - 2 meters
Operating hours: Remarks
Operating agency: Civil government, landing fees and diplomatic clearance may be required
Timezone: UTC+1(+2DT) - Last Sunday in March to last Sunday in October
Fuel: Jet A, without icing inhibitor.

100/130 MIL Spec, low lead, aviation gasoline (BLUE)

Runway information:
15/33 - 3939 x 98 feet< - >1201 x 30 meters

Recent METARs:
LJPZ 202200Z AUTO VRB01KT 9999 -SHRA FEW050/// BKN070/// BKN110/// 08/05 Q1008
LJPZ 202230Z AUTO 00000KT 9999 FEW070/// SCT100/// BKN110/// 08/06 Q1008
LJPZ 202300Z AUTO 23001KT 9999 SCT070/// OVC110/// 08/06 Q1008

Airport on the map: